Time;durP1;ratioP1;P1;durP2;ratioP2;P2;SDS_P1;SDS_P2;PMS_P1;PMS_P2;Temp;Humidity;BMP_temperature;BMP_pressure;BME280_temperature;BME280_humidity;BME280_pressure;Samples;Min_cycle;Max_cycle;Signal;HPM_P1;HPM_P2
2021/03/08 00:02:04;;;;;;;11.47;8.87;;;;;;;;;;5058503;28;20649;-66
2021/03/08 00:04:29;;;;;;;9.00;7.20;;;;;;;;;;5041506;28;20225;-65
2021/03/08 00:06:54;;;;;;;13.03;8.43;;;;;;;;;;5058751;28;20218;-65
2021/03/08 00:09:19;;;;;;;9.57;6.70;;;;;;;;;;5059494;28;20677;-64
2021/03/08 00:11:45;;;;;;;9.90;7.50;;;;;;;;;;5058678;28;20230;-64
2021/03/08 00:14:11;;;;;;;8.20;6.33;;;;;;;;;;5058858;28;20237;-66
2021/03/08 00:16:36;;;;;;;9.53;7.33;;;;;;;;;;5059047;28;20279;-65
2021/03/08 00:19:01;;;;;;;9.60;7.10;;;;;;;;;;5057716;28;20301;-64
2021/03/08 00:21:26;;;;;;;12.30;7.50;;;;;;;;;;5058823;28;20275;-65
2021/03/08 00:23:52;;;;;;;9.20;6.20;;;;;;;;;;5057333;28;20241;-66
2021/03/08 00:26:17;;;;;;;12.30;7.03;;;;;;;;;;5058707;28;20231;-66
2021/03/08 00:28:42;;;;;;;8.00;6.73;;;;;;;;;;5058916;28;20268;-65
2021/03/08 00:31:07;;;;;;;10.63;7.20;;;;;;;;;;5057466;28;20309;-64
2021/03/08 00:33:33;;;;;;;8.80;6.20;;;;;;;;;;5059162;28;20225;-64
2021/03/08 00:35:58;;;;;;;9.50;7.53;;;;;;;;;;5057636;28;20673;-64
2021/03/08 00:38:23;;;;;;;10.90;7.70;;;;;;;;;;5059145;28;20278;-64
2021/03/08 00:40:48;;;;;;;13.17;7.37;;;;;;;;;;5058208;28;20256;-63
2021/03/08 00:43:14;;;;;;;10.47;6.37;;;;;;;;;;5058639;28;20612;-65
2021/03/08 00:45:41;;;;;;;8.83;7.17;;;;;;;;;;5058570;28;20633;-65
2021/03/08 00:48:06;;;;;;;11.50;6.50;;;;;;;;;;5058607;28;20456;-65
2021/03/08 00:50:32;;;;;;;8.43;6.57;;;;;;;;;;5057896;28;20552;-65
2021/03/08 00:52:57;;;;;;;10.00;6.77;;;;;;;;;;5058556;28;20736;-65
2021/03/08 00:55:22;;;;;;;9.50;7.97;;;;;;;;;;5058486;28;20225;-64
2021/03/08 00:57:48;;;;;;;10.43;6.13;;;;;;;;;;5057454;28;20228;-64
2021/03/08 01:00:16;;;;;;;7.57;6.33;;;;;;;;;;5057534;28;20662;-65
2021/03/08 01:02:41;;;;;;;7.50;6.60;;;;;;;;;;5059030;28;20229;-65
2021/03/08 01:05:07;;;;;;;13.27;7.20;;;;;;;;;;5057879;28;20461;-64
2021/03/08 01:07:33;;;;;;;9.60;6.57;;;;;;;;;;5058190;28;20669;-65
2021/03/08 01:09:59;;;;;;;9.17;6.60;;;;;;;;;;5058029;28;20460;-64
2021/03/08 01:12:24;;;;;;;8.33;6.77;;;;;;;;;;5057841;28;20642;-64
2021/03/08 01:14:49;;;;;;;9.70;6.70;;;;;;;;;;5057398;28;20483;-65
2021/03/08 01:17:15;;;;;;;7.30;6.53;;;;;;;;;;5057826;28;20225;-65
2021/03/08 01:19:40;;;;;;;9.30;6.40;;;;;;;;;;5058505;28;20547;-65
2021/03/08 01:22:06;;;;;;;9.80;6.67;;;;;;;;;;5057921;28;20221;-65
2021/03/08 01:24:31;;;;;;;8.50;5.40;;;;;;;;;;5058622;28;20230;-65
2021/03/08 01:26:56;;;;;;;7.07;6.20;;;;;;;;;;5058181;28;20286;-64
2021/03/08 01:29:22;;;;;;;11.47;6.90;;;;;;;;;;5057926;28;20217;-65
2021/03/08 01:31:47;;;;;;;8.30;6.30;;;;;;;;;;5056289;28;20713;-64
2021/03/08 01:34:12;;;;;;;9.40;5.70;;;;;;;;;;5057933;28;20308;-64
2021/03/08 01:36:37;;;;;;;8.20;5.87;;;;;;;;;;5058115;28;20253;-64
2021/03/08 01:39:04;;;;;;;8.83;5.70;;;;;;;;;;5057316;28;20219;-65
2021/03/08 01:41:29;;;;;;;7.90;6.10;;;;;;;;;;5057403;28;20316;-66
2021/03/08 01:43:54;;;;;;;8.10;5.50;;;;;;;;;;5057471;28;20435;-65
2021/03/08 01:46:20;;;;;;;8.23;5.80;;;;;;;;;;5057242;28;20251;-65
2021/03/08 01:48:45;;;;;;;10.23;6.60;;;;;;;;;;5057365;28;20251;-65
2021/03/08 01:51:10;;;;;;;7.03;5.23;;;;;;;;;;5056780;28;20222;-65
2021/03/08 01:53:35;;;;;;;8.40;6.13;;;;;;;;;;5057490;28;20215;-65
2021/03/08 01:56:03;;;;;;;5.43;4.87;;;;;;;;;;5056136;28;20240;-64
2021/03/08 01:58:28;;;;;;;6.73;5.40;;;;;;;;;;5057420;28;20530;-64
2021/03/08 02:00:53;;;;;;;6.40;5.63;;;;;;;;;;5055653;28;20449;-64
2021/03/08 02:03:19;;;;;;;9.77;5.97;;;;;;;;;;5056965;28;20225;-64
2021/03/08 02:05:46;;;;;;;8.40;5.83;;;;;;;;;;5056959;28;20226;-64
2021/03/08 02:08:15;;;;;;;7.37;5.13;;;;;;;;;;5056215;28;20304;-64
2021/03/08 02:10:41;;;;;;;6.17;5.57;;;;;;;;;;5055965;28;20539;-65
2021/03/08 02:13:42;;;;;;;6.53;5.20;;;;;;;;;;5056492;28;20464;-64
2021/03/08 02:16:09;;;;;;;8.07;5.20;;;;;;;;;;5055450;28;20468;-64
2021/03/08 02:18:58;;;;;;;7.63;5.30;;;;;;;;;;5056100;28;20467;-64
2021/03/08 02:21:48;;;;;;;5.80;4.30;;;;;;;;;;5055226;28;21451;-64
2021/03/08 02:24:27;;;;;;;10.00;6.23;;;;;;;;;;5056289;28;20793;-64
2021/03/08 02:27:04;;;;;;;7.80;4.60;;;;;;;;;;5056784;28;20444;-64
2021/03/08 02:29:54;;;;;;;6.50;4.40;;;;;;;;;;5055771;28;20532;-64
2021/03/08 02:32:22;;;;;;;7.03;4.90;;;;;;;;;;5055324;28;20473;-64
2021/03/08 02:35:07;;;;;;;7.00;4.40;;;;;;;;;;5055733;28;20501;-65
2021/03/08 02:37:39;;;;;;;7.23;4.40;;;;;;;;;;5055675;28;20456;-64
2021/03/08 02:40:09;;;;;;;6.77;3.90;;;;;;;;;;5056055;28;20460;-64
2021/03/08 02:42:38;;;;;;;9.33;4.77;;;;;;;;;;5038235;28;20455;-64
2021/03/08 02:45:04;;;;;;;7.60;4.57;;;;;;;;;;5055620;28;20528;-64
2021/03/08 02:47:31;;;;;;;5.73;3.40;;;;;;;;;;5054764;28;20606;-64
2021/03/08 02:49:58;;;;;;;5.10;3.70;;;;;;;;;;5055832;28;20463;-65
2021/03/08 02:52:25;;;;;;;4.90;3.50;;;;;;;;;;5055775;28;20486;-64
2021/03/08 02:54:53;;;;;;;15.03;6.03;;;;;;;;;;5056505;28;20523;-65
2021/03/08 02:57:21;;;;;;;5.50;3.60;;;;;;;;;;5054817;28;20465;-64
2021/03/08 02:59:48;;;;;;;5.07;3.50;;;;;;;;;;5055236;28;20448;-64
2021/03/08 03:02:13;;;;;;;7.13;3.00;;;;;;;;;;5054967;28;20888;-64
2021/03/08 03:04:40;;;;;;;3.80;3.40;;;;;;;;;;5055451;28;20475;-64
2021/03/08 03:07:07;;;;;;;7.53;3.20;;;;;;;;;;5055233;28;20247;-64
2021/03/08 03:09:34;;;;;;;6.03;3.43;;;;;;;;;;5054952;28;20452;-64
2021/03/08 03:11:59;;;;;;;5.27;3.07;;;;;;;;;;5055321;28;20843;-64
2021/03/08 03:14:25;;;;;;;4.80;3.63;;;;;;;;;;5055665;28;20472;-64
2021/03/08 03:16:55;;;;;;;7.83;4.30;;;;;;;;;;5055279;28;20209;-64
2021/03/08 03:19:21;;;;;;;5.23;3.27;;;;;;;;;;5054457;28;20233;-64
2021/03/08 03:21:46;;;;;;;4.43;3.37;;;;;;;;;;5055132;28;20467;-64
2021/03/08 03:24:12;;;;;;;5.53;3.20;;;;;;;;;;5055449;28;20456;-64
2021/03/08 03:26:39;;;;;;;4.83;3.60;;;;;;;;;;5055998;28;20228;-65
2021/03/08 03:29:04;;;;;;;8.10;3.23;;;;;;;;;;5055011;28;20213;-65
2021/03/08 03:31:32;;;;;;;4.87;3.03;;;;;;;;;;5055829;28;20470;-65
2021/03/08 03:33:59;;;;;;;4.60;3.50;;;;;;;;;;5055412;28;20637;-65
2021/03/08 03:36:25;;;;;;;6.13;3.27;;;;;;;;;;5055654;28;20466;-65
2021/03/08 03:38:52;;;;;;;3.43;2.67;;;;;;;;;;5055384;28;20509;-64
2021/03/08 03:41:17;;;;;;;5.43;2.90;;;;;;;;;;5055889;28;20486;-63
2021/03/08 03:43:42;;;;;;;5.43;3.07;;;;;;;;;;5055247;28;21186;-65
2021/03/08 03:46:08;;;;;;;5.80;3.37;;;;;;;;;;5055960;28;20670;-65
2021/03/08 03:48:33;;;;;;;7.23;2.93;;;;;;;;;;5055936;28;20217;-64
2021/03/08 03:50:59;;;;;;;4.20;3.53;;;;;;;;;;5056061;28;20224;-64
2021/03/08 03:53:24;;;;;;;6.27;2.90;;;;;;;;;;5055813;28;20591;-64
2021/03/08 03:55:50;;;;;;;8.53;3.00;;;;;;;;;;5056015;28;20469;-65
2021/03/08 03:58:24;;;;;;;3.70;2.90;;;;;;;;;;5055550;28;20230;-65
2021/03/08 04:01:04;;;;;;;3.83;3.20;;;;;;;;;;5056154;28;20302;-64
2021/03/08 04:03:32;;;;;;;5.10;2.90;;;;;;;;;;5055783;28;20463;-64
2021/03/08 04:05:59;;;;;;;3.30;2.77;;;;;;;;;;5056012;28;20467;-65
2021/03/08 04:08:26;;;;;;;6.03;3.10;;;;;;;;;;5055619;28;20463;-63
2021/03/08 04:10:52;;;;;;;5.10;2.77;;;;;;;;;;5055812;28;20469;-64
2021/03/08 04:13:18;;;;;;;5.90;3.30;;;;;;;;;;5054735;28;20448;-63
2021/03/08 04:15:43;;;;;;;4.83;2.97;;;;;;;;;;5055154;28;20228;-64
2021/03/08 04:18:10;;;;;;;7.43;3.37;;;;;;;;;;5055784;28;20474;-64
2021/03/08 04:20:36;;;;;;;5.33;3.20;;;;;;;;;;5054185;28;20253;-64
2021/03/08 04:23:05;;;;;;;4.00;2.90;;;;;;;;;;5053846;28;20466;-60
2021/03/08 04:25:32;;;;;;;6.53;2.50;;;;;;;;;;5052860;28;20331;-60
2021/03/08 04:27:59;;;;;;;3.10;2.50;;;;;;;;;;5054437;28;20795;-59
2021/03/08 04:30:25;;;;;;;7.63;2.50;;;;;;;;;;5054018;28;20765;-60
2021/03/08 04:32:52;;;;;;;3.33;2.67;;;;;;;;;;5057051;28;20474;-60
2021/03/08 04:35:18;;;;;;;3.77;2.53;;;;;;;;;;5057733;28;20272;-60
2021/03/08 04:37:43;;;;;;;8.30;2.90;;;;;;;;;;5059424;28;20458;-64
2021/03/08 04:40:13;;;;;;;5.00;2.30;;;;;;;;;;5057874;28;20486;-65
2021/03/08 04:42:38;;;;;;;4.00;2.70;;;;;;;;;;5058304;28;20278;-64
2021/03/08 04:45:04;;;;;;;10.53;3.20;;;;;;;;;;5058279;28;20523;-64
2021/03/08 04:47:30;;;;;;;4.10;2.77;;;;;;;;;;5057250;28;20216;-64
2021/03/08 04:49:56;;;;;;;5.57;2.60;;;;;;;;;;5057864;28;20858;-64
2021/03/08 04:52:21;;;;;;;4.80;3.50;;;;;;;;;;5057273;28;20501;-64
2021/03/08 04:54:47;;;;;;;4.53;3.23;;;;;;;;;;5041380;28;20217;-64
2021/03/08 04:57:16;;;;;;;4.30;2.70;;;;;;;;;;5059072;28;20748;-65
2021/03/08 04:59:42;;;;;;;4.00;3.17;;;;;;;;;;5057613;28;20238;-64
2021/03/08 05:02:09;;;;;;;4.27;2.87;;;;;;;;;;5057712;28;20471;-64
2021/03/08 05:04:37;;;;;;;7.20;3.30;;;;;;;;;;5057862;28;20669;-64
2021/03/08 05:07:02;;;;;;;5.70;2.60;;;;;;;;;;5058694;28;20463;-64
2021/03/08 05:09:28;;;;;;;4.13;2.53;;;;;;;;;;5058053;28;20537;-64
2021/03/08 05:11:55;;;;;;;3.90;2.57;;;;;;;;;;5057406;28;20221;-64
2021/03/08 05:14:22;;;;;;;4.50;2.57;;;;;;;;;;5057133;28;20320;-67
2021/03/08 05:16:48;;;;;;;3.63;3.27;;;;;;;;;;5056369;28;20843;-65
2021/03/08 05:19:13;;;;;;;3.07;2.43;;;;;;;;;;5050250;28;20453;-64
2021/03/08 05:21:39;;;;;;;2.80;2.23;;;;;;;;;;5054764;28;20219;-64
2021/03/08 05:24:05;;;;;;;4.47;2.50;;;;;;;;;;5038739;28;20474;-64
2021/03/08 05:26:31;;;;;;;5.20;2.77;;;;;;;;;;5040348;28;20235;-64
2021/03/08 05:28:57;;;;;;;5.90;3.53;;;;;;;;;;5058379;28;20496;-64
2021/03/08 05:31:24;;;;;;;3.90;2.30;;;;;;;;;;5056827;28;20296;-64
2021/03/08 05:33:51;;;;;;;8.40;2.10;;;;;;;;;;5056930;28;20477;-64
2021/03/08 05:36:17;;;;;;;2.60;2.30;;;;;;;;;;5043379;28;20459;-64
2021/03/08 05:38:44;;;;;;;10.80;3.80;;;;;;;;;;5037677;28;20498;-64
2021/03/08 05:41:12;;;;;;;3.43;2.40;;;;;;;;;;5037606;28;20498;-64
2021/03/08 05:43:40;;;;;;;3.10;2.60;;;;;;;;;;5035875;28;20490;-65
2021/03/08 05:46:15;;;;;;;3.13;2.47;;;;;;;;;;5036811;28;20543;-64
2021/03/08 05:49:09;;;;;;;4.10;2.80;;;;;;;;;;5037066;28;20912;-64
2021/03/08 05:51:52;;;;;;;5.90;2.90;;;;;;;;;;5036144;28;20470;-64
2021/03/08 05:54:24;;;;;;;3.30;2.70;;;;;;;;;;5036604;28;20475;-63
2021/03/08 05:57:26;;;;;;;4.80;2.30;;;;;;;;;;5036847;28;20475;-63
2021/03/08 06:00:16;;;;;;;3.40;2.27;;;;;;;;;;5037892;28;20435;-62
2021/03/08 06:02:55;;;;;;;3.00;2.37;;;;;;;;;;5037403;28;20460;-64
2021/03/08 06:05:33;;;;;;;6.00;3.00;;;;;;;;;;5037133;28;20555;-63
2021/03/08 06:08:23;;;;;;;10.40;3.73;;;;;;;;;;5037985;28;20509;-64
2021/03/08 06:11:03;;;;;;;4.33;2.60;;;;;;;;;;5036692;28;20467;-64
2021/03/08 06:13:32;;;;;;;5.80;4.07;;;;;;;;;;5036384;28;20864;-64
2021/03/08 06:15:59;;;;;;;4.57;2.50;;;;;;;;;;5035461;28;20511;-64
2021/03/08 06:18:32;;;;;;;5.23;3.10;;;;;;;;;;5036965;28;20468;-63
2021/03/08 06:20:59;;;;;;;5.70;4.03;;;;;;;;;;5053971;28;20845;-63
2021/03/08 06:23:25;;;;;;;4.73;3.17;;;;;;;;;;5038636;28;20938;-63
2021/03/08 06:25:53;;;;;;;6.77;3.90;;;;;;;;;;5055155;28;20920;-62
2021/03/08 06:28:19;;;;;;;3.67;3.13;;;;;;;;;;5056491;28;20468;-63
2021/03/08 06:30:44;;;;;;;5.07;3.00;;;;;;;;;;5055720;28;20494;-62
2021/03/08 06:33:11;;;;;;;3.73;3.20;;;;;;;;;;5057252;28;20278;-64
2021/03/08 06:35:36;;;;;;;4.23;2.80;;;;;;;;;;5056170;28;20283;-61
2021/03/08 06:38:01;;;;;;;5.87;2.67;;;;;;;;;;5055725;28;20540;-63
2021/03/08 06:40:27;;;;;;;4.23;2.60;;;;;;;;;;5056210;28;20223;-63
2021/03/08 06:42:52;;;;;;;4.57;2.90;;;;;;;;;;5056671;28;20221;-63
2021/03/08 06:45:18;;;;;;;4.23;2.73;;;;;;;;;;5056600;28;20228;-63
2021/03/08 06:47:43;;;;;;;5.10;2.60;;;;;;;;;;5056217;28;20678;-63
2021/03/08 06:50:09;;;;;;;3.87;3.40;;;;;;;;;;5057483;28;20209;-63
2021/03/08 06:52:41;;;;;;;4.33;2.70;;;;;;;;;;5056539;28;20225;-64
2021/03/08 06:55:08;;;;;;;4.90;2.70;;;;;;;;;;5036277;28;20464;-63
2021/03/08 06:57:37;;;;;;;2.80;2.60;;;;;;;;;;5034874;28;20459;-64
2021/03/08 07:00:09;;;;;;;3.97;2.83;;;;;;;;;;5035636;28;20461;-63
2021/03/08 07:02:42;;;;;;;3.40;2.50;;;;;;;;;;5036011;28;20452;-63
2021/03/08 07:05:09;;;;;;;6.43;3.20;;;;;;;;;;5036220;28;20455;-62
2021/03/08 07:07:54;;;;;;;4.90;2.87;;;;;;;;;;5036283;28;20495;-64
2021/03/08 07:10:36;;;;;;;4.20;2.77;;;;;;;;;;5035503;28;21005;-63
2021/03/08 07:13:03;;;;;;;5.30;2.50;;;;;;;;;;5034773;28;20944;-63
2021/03/08 07:15:29;;;;;;;3.80;2.60;;;;;;;;;;5035605;28;20455;-63
2021/03/08 07:17:54;;;;;;;4.40;2.90;;;;;;;;;;5018732;28;20509;-63
2021/03/08 07:20:20;;;;;;;3.17;2.53;;;;;;;;;;5039834;28;20201;-62
2021/03/08 07:22:47;;;;;;;3.97;2.37;;;;;;;;;;5055707;28;20214;-63
2021/03/08 07:25:16;;;;;;;5.27;2.60;;;;;;;;;;5055602;28;20227;-62
2021/03/08 07:27:57;;;;;;;5.47;3.10;;;;;;;;;;5040394;28;20460;-63
2021/03/08 07:30:25;;;;;;;8.80;3.40;;;;;;;;;;5035918;28;20471;-63
2021/03/08 07:33:03;;;;;;;4.70;3.43;;;;;;;;;;5035965;28;20800;-63
2021/03/08 07:35:43;;;;;;;8.43;3.50;;;;;;;;;;5035118;28;20752;-63
2021/03/08 07:38:11;;;;;;;6.53;2.90;;;;;;;;;;5035731;28;20551;-63
2021/03/08 07:40:38;;;;;;;3.93;2.70;;;;;;;;;;5034947;28;20465;-64
2021/03/08 07:43:04;;;;;;;3.87;3.03;;;;;;;;;;5036080;28;20971;-64
2021/03/08 07:45:41;;;;;;;5.00;3.67;;;;;;;;;;5035384;28;20465;-64
2021/03/08 07:48:10;;;;;;;3.40;2.60;;;;;;;;;;5035487;28;20249;-63
2021/03/08 07:50:36;;;;;;;3.67;2.33;;;;;;;;;;5036064;28;20477;-63
2021/03/08 07:53:01;;;;;;;4.13;3.10;;;;;;;;;;5035860;28;20468;-64
2021/03/08 07:55:36;;;;;;;4.67;3.00;;;;;;;;;;5035997;28;20216;-63
2021/03/08 07:58:03;;;;;;;3.57;2.30;;;;;;;;;;5036070;28;20289;-63
2021/03/08 08:00:29;;;;;;;3.27;2.10;;;;;;;;;;5035621;28;20451;-63
2021/03/08 08:02:55;;;;;;;2.83;2.17;;;;;;;;;;5035810;28;20535;-64
2021/03/08 08:05:20;;;;;;;4.20;2.80;;;;;;;;;;5035662;28;20457;-64
2021/03/08 08:07:46;;;;;;;8.50;3.60;;;;;;;;;;5040008;28;20225;-63
2021/03/08 08:10:15;;;;;;;4.00;2.77;;;;;;;;;;5039318;28;20263;-64
2021/03/08 08:12:42;;;;;;;8.73;5.23;;;;;;;;;;5039821;28;20549;-63
2021/03/08 08:15:09;;;;;;;8.93;4.27;;;;;;;;;;5038039;28;20481;-63
2021/03/08 08:17:35;;;;;;;7.60;5.37;;;;;;;;;;5039052;28;20785;-63
2021/03/08 08:20:03;;;;;;;6.47;3.70;;;;;;;;;;5041308;28;20943;-63
2021/03/08 08:22:29;;;;;;;3.30;2.77;;;;;;;;;;5059097;28;20448;-63
2021/03/08 08:24:55;;;;;;;4.70;3.00;;;;;;;;;;5059560;28;20609;-64
2021/03/08 08:27:22;;;;;;;5.00;2.90;;;;;;;;;;5045322;28;20218;-63
2021/03/08 08:29:49;;;;;;;2.90;2.47;;;;;;;;;;5039602;28;20547;-64
2021/03/08 08:32:15;;;;;;;4.20;3.00;;;;;;;;;;5037851;28;20524;-63
2021/03/08 08:34:42;;;;;;;3.40;2.53;;;;;;;;;;5039444;28;20835;-64
2021/03/08 08:37:18;;;;;;;2.50;2.13;;;;;;;;;;5039073;28;20467;-64
2021/03/08 08:40:04;;;;;;;2.33;2.00;;;;;;;;;;5038446;28;20780;-63
2021/03/08 08:42:30;;;;;;;2.83;1.87;;;;;;;;;;5037881;28;20460;-60
2021/03/08 08:44:57;;;;;;;3.93;2.33;;;;;;;;;;5037728;28;20465;-59
2021/03/08 08:47:30;;;;;;;3.00;2.70;;;;;;;;;;5037411;28;20524;-59
2021/03/08 08:49:58;;;;;;;2.93;2.30;;;;;;;;;;5037734;28;20464;-59
2021/03/08 08:52:48;;;;;;;4.33;2.30;;;;;;;;;;5037572;28;20802;-59
2021/03/08 08:55:15;;;;;;;2.20;1.97;;;;;;;;;;5037024;28;20458;-60
2021/03/08 08:58:18;;;;;;;3.97;2.23;;;;;;;;;;5037340;28;20452;-58
2021/03/08 09:01:10;;;;;;;4.20;1.27;;;;;;;;;;5037226;28;20798;-59
2021/03/08 09:03:59;;;;;;;2.40;1.80;;;;;;;;;;5037133;28;20503;-59
2021/03/08 09:06:43;;;;;;;2.87;1.50;;;;;;;;;;5037211;28;20781;-60
2021/03/08 09:09:09;;;;;;;2.47;1.67;;;;;;;;;;5037299;28;20448;-59
2021/03/08 09:11:43;;;;;;;3.33;1.80;;;;;;;;;;5036886;28;20779;-59
2021/03/08 09:14:46;;;;;;;3.67;1.60;;;;;;;;;;5037205;28;20515;-59
2021/03/08 09:17:31;;;;;;;2.67;1.63;;;;;;;;;;5036166;28;20895;-59
2021/03/08 09:19:57;;;;;;;2.40;1.80;;;;;;;;;;5039375;28;20474;-59
2021/03/08 09:22:25;;;;;;;6.32;3.00;;;;;;;;;;5056701;28;20456;-60
2021/03/08 09:24:52;;;;;;;2.90;1.60;;;;;;;;;;5056875;28;20253;-60
2021/03/08 09:27:24;;;;;;;2.30;1.47;;;;;;;;;;5044102;28;20486;-60
2021/03/08 09:29:50;;;;;;;2.03;1.60;;;;;;;;;;5036995;28;20457;-60
2021/03/08 09:32:19;;;;;;;2.10;1.33;;;;;;;;;;5035796;28;20466;-60
2021/03/08 09:34:44;;;;;;;2.20;1.63;;;;;;;;;;5036846;28;20465;-59
2021/03/08 09:37:10;;;;;;;3.47;1.50;;;;;;;;;;5036569;28;20451;-59
2021/03/08 09:39:48;;;;;;;2.30;1.60;;;;;;;;;;5037033;28;20300;-59
2021/03/08 09:42:14;;;;;;;1.80;1.50;;;;;;;;;;5036353;28;20466;-59
2021/03/08 09:44:40;;;;;;;1.70;1.57;;;;;;;;;;5036690;28;20471;-60
2021/03/08 09:47:06;;;;;;;1.80;1.20;;;;;;;;;;5036390;28;20282;-60
2021/03/08 09:49:51;;;;;;;4.60;1.50;;;;;;;;;;5035524;28;20950;-60
2021/03/08 09:52:39;;;;;;;1.97;1.30;;;;;;;;;;5036266;28;20228;-59
2021/03/08 09:55:07;;;;;;;3.23;1.63;;;;;;;;;;5036070;28;20462;-60
2021/03/08 09:57:39;;;;;;;5.27;1.30;;;;;;;;;;5036440;28;20481;-60
2021/03/08 10:00:15;;;;;;;2.37;1.40;;;;;;;;;;5036091;28;20459;-60
2021/03/08 10:02:41;;;;;;;2.20;1.17;;;;;;;;;;5036276;28;20537;-60
2021/03/08 10:05:11;;;;;;;2.93;1.33;;;;;;;;;;5034905;28;20498;-60
2021/03/08 10:07:56;;;;;;;1.80;0.93;;;;;;;;;;5036106;28;20451;-59
2021/03/08 10:10:23;;;;;;;3.57;1.50;;;;;;;;;;5036019;28;20458;-59
2021/03/08 10:13:01;;;;;;;1.90;1.20;;;;;;;;;;5035960;28;20437;-60
2021/03/08 10:15:27;;;;;;;2.37;1.20;;;;;;;;;;5035021;28;20468;-60
2021/03/08 10:18:00;;;;;;;5.20;2.00;;;;;;;;;;5036336;28;20936;-61
2021/03/08 10:20:27;;;;;;;1.60;1.47;;;;;;;;;;5041676;28;20454;-59
2021/03/08 10:22:54;;;;;;;1.83;0.90;;;;;;;;;;5055781;28;20956;-60
2021/03/08 10:25:23;;;;;;;2.77;1.33;;;;;;;;;;5055518;28;20477;-60
2021/03/08 10:27:53;;;;;;;2.33;1.40;;;;;;;;;;5039241;28;20514;-60
2021/03/08 10:30:19;;;;;;;1.80;1.13;;;;;;;;;;5034249;28;20476;-59
2021/03/08 10:32:44;;;;;;;3.17;1.30;;;;;;;;;;5035514;28;20478;-60
2021/03/08 10:35:11;;;;;;;4.30;1.50;;;;;;;;;;5035215;28;20770;-60
2021/03/08 10:37:37;;;;;;;1.63;1.10;;;;;;;;;;5034350;28;20235;-59
2021/03/08 10:40:03;;;;;;;1.87;1.10;;;;;;;;;;5034449;28;20601;-59
2021/03/08 10:42:29;;;;;;;1.80;1.10;;;;;;;;;;5034086;28;20464;-59
2021/03/08 10:44:55;;;;;;;1.60;1.00;;;;;;;;;;5035391;28;20484;-60
2021/03/08 10:47:20;;;;;;;2.87;1.33;;;;;;;;;;5033942;28;20223;-60
2021/03/08 10:49:53;;;;;;;2.80;1.10;;;;;;;;;;5035285;28;20568;-60
2021/03/08 10:52:22;;;;;;;2.23;1.30;;;;;;;;;;5034990;28;20234;-60
2021/03/08 10:54:47;;;;;;;1.43;0.90;;;;;;;;;;5034181;28;20933;-60
2021/03/08 10:57:13;;;;;;;2.27;1.30;;;;;;;;;;5034388;28;20435;-60
2021/03/08 10:59:56;;;;;;;2.87;1.53;;;;;;;;;;5035309;28;20218;-59
2021/03/08 11:02:22;;;;;;;1.70;1.20;;;;;;;;;;5034864;28;20474;-59
2021/03/08 11:05:11;;;;;;;2.47;1.40;;;;;;;;;;5035020;28;20468;-58
2021/03/08 11:07:37;;;;;;;3.13;1.53;;;;;;;;;;5034939;28;20452;-60
2021/03/08 11:10:03;;;;;;;2.70;1.07;;;;;;;;;;5034959;28;20912;-60
2021/03/08 11:12:29;;;;;;;2.07;1.20;;;;;;;;;;5034640;28;20606;-60
2021/03/08 11:14:57;;;;;;;1.30;1.10;;;;;;;;;;5034800;28;20573;-60
2021/03/08 11:17:36;;;;;;;1.97;1.20;;;;;;;;;;5034801;28;20229;-58
2021/03/08 11:20:13;;;;;;;1.43;1.00;;;;;;;;;;5037639;28;20506;-60
2021/03/08 11:22:52;;;;;;;2.00;1.30;;;;;;;;;;5054271;28;20456;-60
2021/03/08 11:25:44;;;;;;;1.80;1.17;;;;;;;;;;5054387;28;20954;-60
2021/03/08 11:28:11;;;;;;;2.30;1.30;;;;;;;;;;5035589;28;20482;-61
2021/03/08 11:30:37;;;;;;;1.60;1.13;;;;;;;;;;5034502;28;20481;-59
2021/03/08 11:33:06;;;;;;;5.20;2.23;;;;;;;;;;5034778;28;20494;-59
2021/03/08 11:35:32;;;;;;;2.80;1.30;;;;;;;;;;5034726;28;20431;-59
2021/03/08 11:38:02;;;;;;;2.60;1.60;;;;;;;;;;5034758;28;20438;-60
2021/03/08 11:40:28;;;;;;;1.57;1.00;;;;;;;;;;5033722;28;20942;-60
2021/03/08 11:42:54;;;;;;;2.40;1.70;;;;;;;;;;5034645;28;20435;-60
2021/03/08 11:45:21;;;;;;;1.90;1.43;;;;;;;;;;5034230;28;20790;-60
2021/03/08 11:47:57;;;;;;;2.33;1.30;;;;;;;;;;5034707;28;20513;-60
2021/03/08 11:50:24;;;;;;;3.70;1.23;;;;;;;;;;5034302;28;20438;-58
2021/03/08 11:52:49;;;;;;;2.00;1.30;;;;;;;;;;5034539;28;20526;-60
2021/03/08 11:55:16;;;;;;;1.30;1.20;;;;;;;;;;5034931;28;20832;-60
2021/03/08 11:57:45;;;;;;;2.73;1.50;;;;;;;;;;5033164;28;20223;-60
2021/03/08 12:00:12;;;;;;;1.27;1.10;;;;;;;;;;5034467;28;20521;-60
2021/03/08 12:02:38;;;;;;;2.50;1.00;;;;;;;;;;5033713;28;20478;-60
2021/03/08 12:05:04;;;;;;;3.40;1.60;;;;;;;;;;5034435;28;20450;-59
2021/03/08 12:07:29;;;;;;;1.73;1.30;;;;;;;;;;5033497;28;20251;-60
2021/03/08 12:09:54;;;;;;;2.03;1.50;;;;;;;;;;5034262;28;20660;-59
2021/03/08 12:12:19;;;;;;;2.73;1.40;;;;;;;;;;5033668;28;20299;-60
2021/03/08 12:14:45;;;;;;;6.67;1.70;;;;;;;;;;5033978;28;20230;-59
2021/03/08 12:17:10;;;;;;;3.07;1.77;;;;;;;;;;5034405;28;20218;-61
2021/03/08 12:19:35;;;;;;;3.10;2.60;;;;;;;;;;5032937;28;20368;-59
2021/03/08 12:22:00;;;;;;;2.33;1.57;;;;;;;;;;5053181;28;20300;-60
2021/03/08 12:24:26;;;;;;;1.80;1.70;;;;;;;;;;5053660;28;20213;-60
2021/03/08 12:26:51;;;;;;;1.53;1.10;;;;;;;;;;5045333;28;20307;-60
2021/03/08 12:29:16;;;;;;;2.53;1.50;;;;;;;;;;5034025;28;20526;-60
2021/03/08 12:31:42;;;;;;;1.70;1.30;;;;;;;;;;5033936;28;20220;-60
2021/03/08 12:34:07;;;;;;;1.03;0.90;;;;;;;;;;5034104;28;20676;-60
2021/03/08 12:36:32;;;;;;;1.40;1.17;;;;;;;;;;5033523;28;20217;-59
2021/03/08 12:38:57;;;;;;;2.83;1.40;;;;;;;;;;5034010;28;20352;-60
2021/03/08 12:41:23;;;;;;;3.70;1.40;;;;;;;;;;5033297;28;20316;-60
2021/03/08 12:43:49;;;;;;;1.77;1.20;;;;;;;;;;5033778;28;20216;-59
2021/03/08 12:46:14;;;;;;;2.40;1.17;;;;;;;;;;5034164;28;20222;-60
2021/03/08 12:48:40;;;;;;;1.93;1.20;;;;;;;;;;5033715;28;20929;-60
2021/03/08 12:51:05;;;;;;;1.37;1.20;;;;;;;;;;5033868;28;20225;-60
2021/03/08 12:53:30;;;;;;;2.63;1.00;;;;;;;;;;5035353;28;20557;-59
2021/03/08 12:55:55;;;;;;;4.37;1.23;;;;;;;;;;5037345;28;20228;-59
2021/03/08 12:58:21;;;;;;;2.40;1.37;;;;;;;;;;5037089;28;20285;-61
2021/03/08 13:00:46;;;;;;;2.20;1.50;;;;;;;;;;5037360;28;20292;-60
2021/03/08 13:03:11;;;;;;;2.37;1.80;;;;;;;;;;5037665;28;20646;-60
2021/03/08 13:05:36;;;;;;;1.30;1.20;;;;;;;;;;5037135;28;20309;-60
2021/03/08 13:08:02;;;;;;;1.50;1.30;;;;;;;;;;5036926;28;20228;-60
2021/03/08 13:10:27;;;;;;;3.30;1.67;;;;;;;;;;5036461;28;20213;-60
2021/03/08 13:12:53;;;;;;;4.97;1.37;;;;;;;;;;5036771;28;20280;-59
2021/03/08 13:15:18;;;;;;;1.17;1.00;;;;;;;;;;5036544;28;20222;-59
2021/03/08 13:17:43;;;;;;;1.87;1.27;;;;;;;;;;5036354;28;20215;-60
2021/03/08 13:20:11;;;;;;;3.20;1.67;;;;;;;;;;5040047;28;20294;-60
2021/03/08 13:22:36;;;;;;;2.50;1.30;;;;;;;;;;5056136;28;20229;-59
2021/03/08 13:25:03;;;;;;;2.10;1.40;;;;;;;;;;5056275;28;20473;-60
2021/03/08 13:27:28;;;;;;;2.07;1.40;;;;;;;;;;5042289;28;20527;-60
2021/03/08 13:29:54;;;;;;;1.90;1.33;;;;;;;;;;5036342;28;20439;-60
2021/03/08 13:32:19;;;;;;;5.43;1.30;;;;;;;;;;5036332;28;20614;-60
2021/03/08 13:34:44;;;;;;;1.83;1.17;;;;;;;;;;5035961;28;20228;-59
2021/03/08 13:37:09;;;;;;;3.13;1.53;;;;;;;;;;5039239;28;20217;-60
2021/03/08 13:39:35;;;;;;;1.90;1.27;;;;;;;;;;5053252;28;20234;-60
2021/03/08 13:42:00;;;;;;;2.00;1.30;;;;;;;;;;5055362;28;20219;-59
2021/03/08 13:44:25;;;;;;;4.83;1.30;;;;;;;;;;5055317;28;20676;-60
2021/03/08 13:46:51;;;;;;;1.70;1.30;;;;;;;;;;5054458;28;20311;-59
2021/03/08 13:49:17;;;;;;;2.03;1.20;;;;;;;;;;5056226;28;20221;-60
2021/03/08 13:51:42;;;;;;;2.70;1.20;;;;;;;;;;5055598;28;20221;-60
2021/03/08 13:54:08;;;;;;;4.60;1.27;;;;;;;;;;5056233;28;20462;-59
2021/03/08 13:56:33;;;;;;;1.87;1.43;;;;;;;;;;5055615;28;20221;-60
2021/03/08 13:58:59;;;;;;;2.57;1.60;;;;;;;;;;5056213;28;20209;-59
2021/03/08 14:01:24;;;;;;;2.40;1.40;;;;;;;;;;5055418;28;20225;-61
2021/03/08 14:03:50;;;;;;;1.00;0.83;;;;;;;;;;5055320;28;20521;-59
2021/03/08 14:06:17;;;;;;;2.20;1.50;;;;;;;;;;5056018;28;20234;-59
2021/03/08 14:08:42;;;;;;;2.20;1.30;;;;;;;;;;5055452;28;20706;-59
2021/03/08 14:11:08;;;;;;;1.83;1.20;;;;;;;;;;5055677;28;20427;-60
2021/03/08 14:13:33;;;;;;;1.20;1.00;;;;;;;;;;5055523;28;20218;-60
2021/03/08 14:15:58;;;;;;;5.23;2.70;;;;;;;;;;5055179;28;20367;-60
2021/03/08 14:18:24;;;;;;;2.23;1.27;;;;;;;;;;5055461;28;20663;-59
2021/03/08 14:20:49;;;;;;;1.00;0.90;;;;;;;;;;5055156;28;20657;-60
2021/03/08 14:23:14;;;;;;;1.17;0.97;;;;;;;;;;5055218;28;20219;-59
2021/03/08 14:25:40;;;;;;;3.70;2.40;;;;;;;;;;5054958;28;20241;-59
2021/03/08 14:28:06;;;;;;;2.07;1.13;;;;;;;;;;5036420;28;20303;-59
2021/03/08 14:30:32;;;;;;;1.43;1.10;;;;;;;;;;5035019;28;20260;-59
2021/03/08 14:32:57;;;;;;;1.53;1.00;;;;;;;;;;5035115;28;20465;-60
2021/03/08 14:35:22;;;;;;;1.40;1.30;;;;;;;;;;5035502;28;20226;-60
2021/03/08 14:37:48;;;;;;;3.60;1.33;;;;;;;;;;5034810;28;20217;-59
2021/03/08 14:40:13;;;;;;;2.43;1.10;;;;;;;;;;5035376;28;20824;-60
2021/03/08 14:42:38;;;;;;;2.60;1.10;;;;;;;;;;5034725;28;20229;-59
2021/03/08 14:45:07;;;;;;;1.23;1.03;;;;;;;;;;5035052;28;20315;-61
2021/03/08 14:47:32;;;;;;;1.60;1.17;;;;;;;;;;5034620;28;20677;-61
2021/03/08 14:49:57;;;;;;;2.13;0.87;;;;;;;;;;5034707;28;20540;-60
2021/03/08 14:52:23;;;;;;;1.87;1.23;;;;;;;;;;5033734;28;20535;-59